Tashkent International Airport

Airport
ICAO code: 
UTTT
IATA Code: 
TAS
Summary
ICAO Region: 
EUR
Territory: 
Location: 
Tashkent, Uzbekistan,
Serving: 
Tashkent
Elevation: 
1417 ft
Coordinates: 
Aerial View: 
41° 15' 28.3" N, 69° 16' 52.27" E
Airport BS: 
Bird Strike
Airport CFIT: 
Altimeter Temperature Error Correction
Airport LOS: 
Parallel Runway Operation
Metar
Observation
UTTT 010600Z 07008KT CAVOK 18/M02 Q1019 R08R/CLRD70 NOSIG
Station
Tashkent
Date/Time
2021-12-01 06:00:00
Wind direction
70°
Wind speed
08 kts
Lowest cloud amount
clouds and visibility OK
Temperature
18°C
Dew point
-2°C
Humidity
25%
QNH
1019 hPa
Weather condition
n/a

Description

Tashkent International Airport is the main international airport of Uzbekistan and the largest airport in Central Asia. It is located 12 km from the center of Tashkent. Sometimes the airport is also referred as Vostochny-Tashkent.

Climatology

Runways

Designator Length Width Surface Rops
08R/26L 3905 45 ASP Yes/Yes
08L/26R 4000 60 CON Yes/Yes
Airport map: 
Aerial View: 

SKYbrary Partners:

Safety knowledge contributed by: